Time;durP1;ratioP1;P1;durP2;ratioP2;P2;SDS_P1;SDS_P2;PMS_P1;PMS_P2;Temp;Humidity;BMP_temperature;BMP_pressure;BME280_temperature;BME280_humidity;BME280_pressure;Samples;Min_cycle;Max_cycle;Signal;HPM_P1;HPM_P2
2021/09/09 00:04:01;;;;;;;6.35;5.72;;;;;;;14.26;94.30;96053.97;5179747;57;20137;-74
2021/09/09 00:09:04;;;;;;;7.18;6.15;;;;;;;14.23;95.01;96058.50;5180027;57;20580;-75
2021/09/09 00:14:07;;;;;;;8.65;6.00;;;;;;;14.12;94.68;96052.09;5180060;57;20124;-76
2021/09/09 00:19:13;;;;;;;7.60;6.80;;;;;;;14.07;95.07;96056.34;5179899;57;20138;-75
2021/09/09 00:24:16;;;;;;;8.75;6.90;;;;;;;14.07;94.58;96059.13;5180239;57;20146;-76
2021/09/09 00:29:18;;;;;;;8.50;6.95;;;;;;;13.96;94.76;96050.69;5179661;57;20133;-76
2021/09/09 00:34:20;;;;;;;8.85;7.45;;;;;;;13.95;94.95;96054.72;5179721;57;20128;-75
2021/09/09 00:39:23;;;;;;;8.75;6.80;;;;;;;13.92;95.00;96049.38;5179891;57;20133;-75
2021/09/09 00:44:27;;;;;;;7.57;6.75;;;;;;;13.93;95.75;96062.75;5179669;57;20115;-75
2021/09/09 00:49:31;;;;;;;8.95;7.18;;;;;;;13.91;95.29;96058.97;5179392;57;20696;-75
2021/09/09 00:54:34;;;;;;;9.55;7.18;;;;;;;13.91;94.85;96062.50;5179576;57;20124;-75
2021/09/09 00:59:36;;;;;;;8.02;6.57;;;;;;;13.85;95.13;96050.56;5178873;57;20134;-75
2021/09/09 01:04:39;;;;;;;9.63;7.70;;;;;;;13.83;95.09;96061.41;5179659;57;20407;-75
2021/09/09 01:09:42;;;;;;;10.85;7.43;;;;;;;13.81;94.95;96063.16;5179264;57;20116;-75
2021/09/09 01:14:44;;;;;;;10.25;8.00;;;;;;;13.78;94.82;96050.25;5212957;45;20123;-74
2021/09/09 01:19:47;;;;;;;11.20;7.53;;;;;;;13.81;94.90;96054.81;5198124;57;20123;-74
2021/09/09 01:24:49;;;;;;;8.88;6.80;;;;;;;13.73;94.89;96054.47;5205214;57;20326;-73
2021/09/09 01:29:52;;;;;;;10.60;7.28;;;;;;;13.70;95.06;96066.59;5205072;57;20686;-74
2021/09/09 01:34:54;;;;;;;10.38;7.28;;;;;;;13.70;95.29;96063.03;5206324;57;20118;-74
2021/09/09 01:39:57;;;;;;;10.52;7.25;;;;;;;13.72;95.34;96071.66;5208395;57;20119;-73
2021/09/09 01:44:59;;;;;;;10.63;7.50;;;;;;;13.85;94.94;96061.69;5210172;57;20119;-73
2021/09/09 01:50:02;;;;;;;8.88;7.07;;;;;;;13.81;95.22;96071.47;5206548;57;20123;-74
2021/09/09 01:55:05;;;;;;;11.30;7.68;;;;;;;13.73;95.12;96071.16;5207096;57;20223;-73
2021/09/09 02:00:08;;;;;;;13.32;7.28;;;;;;;13.63;95.31;96069.78;5195653;57;20123;-73
2021/09/09 02:05:13;;;;;;;12.38;7.35;;;;;;;13.64;95.40;96079.63;5202985;57;20141;-75
2021/09/09 02:10:19;;;;;;;9.32;7.50;;;;;;;13.70;95.25;96071.38;5204273;57;20137;-75
2021/09/09 02:15:22;;;;;;;9.60;7.88;;;;;;;13.55;95.34;96075.00;5205172;57;20127;-76
2021/09/09 02:20:24;;;;;;;8.10;7.10;;;;;;;13.49;95.54;96065.84;5195350;57;20123;-75
2021/09/09 02:25:27;;;;;;;9.88;8.25;;;;;;;13.52;95.76;96061.34;5205147;57;20248;-75
2021/09/09 02:30:29;;;;;;;9.50;7.28;;;;;;;13.55;95.90;96066.66;5196507;57;20132;-76
2021/09/09 02:35:31;;;;;;;8.55;7.65;;;;;;;13.54;95.73;96070.72;5206992;57;20123;-73
2021/09/09 02:40:34;;;;;;;8.80;7.50;;;;;;;13.53;95.79;96068.41;5205719;57;20111;-76
2021/09/09 02:45:37;;;;;;;9.98;8.15;;;;;;;13.53;96.15;96068.41;5206273;57;20145;-75
2021/09/09 02:50:39;;;;;;;9.02;7.15;;;;;;;13.57;95.99;96066.94;5208529;57;20132;-76
2021/09/09 02:55:42;;;;;;;7.85;7.05;;;;;;;13.50;95.72;96063.84;5209548;57;20114;-73
2021/09/09 03:00:44;;;;;;;10.07;6.43;;;;;;;13.40;95.72;96060.44;5207176;57;20119;-75
2021/09/09 03:05:47;;;;;;;6.63;5.90;;;;;;;13.34;95.88;96058.84;5205016;57;20115;-74
2021/09/09 03:10:49;;;;;;;7.40;6.55;;;;;;;13.28;96.08;96069.88;5206010;57;20127;-76
2021/09/09 03:15:52;;;;;;;8.68;6.78;;;;;;;13.19;96.05;96050.59;5203026;57;20128;-74
2021/09/09 03:20:55;;;;;;;8.32;6.50;;;;;;;13.23;96.27;96053.91;5203821;57;20145;-76
2021/09/09 03:25:57;;;;;;;5.97;5.45;;;;;;;13.21;96.34;96039.78;5203173;57;20145;-73
2021/09/09 03:30:59;;;;;;;7.88;6.10;;;;;;;13.17;96.06;96039.22;5203888;57;20114;-77
2021/09/09 03:36:02;;;;;;;7.07;6.25;;;;;;;13.21;96.43;96042.53;5203639;57;20118;-73
2021/09/09 03:41:05;;;;;;;10.07;7.53;;;;;;;13.20;96.61;96043.03;5203612;57;20119;-76
2021/09/09 03:46:07;;;;;;;8.32;7.00;;;;;;;13.30;96.80;96034.06;5203666;57;20177;-75
2021/09/09 03:51:10;;;;;;;10.27;6.68;;;;;;;13.27;96.25;96029.53;5204601;57;20669;-76
2021/09/09 03:56:12;;;;;;;8.93;6.95;;;;;;;13.21;96.52;96036.22;5206696;57;20118;-73
2021/09/09 04:01:14;;;;;;;9.05;6.97;;;;;;;13.19;96.76;96044.28;5210688;57;20102;-73
2021/09/09 04:06:17;;;;;;;8.63;7.55;;;;;;;13.19;97.23;96035.97;5212646;57;20130;-73
2021/09/09 04:11:20;;;;;;;10.18;7.55;;;;;;;13.20;97.32;96043.81;5205291;57;20115;-73
2021/09/09 04:16:22;;;;;;;8.90;6.97;;;;;;;13.25;96.97;96051.41;5209682;57;20851;-73
2021/09/09 04:21:25;;;;;;;8.30;7.43;;;;;;;13.29;96.70;96048.44;5207045;57;20130;-76
2021/09/09 04:31:20;;;;;;;7.13;6.15;;;;;;;13.23;96.85;96044.84;5397255;54;20540;-75
2021/09/09 04:36:22;;;;;;;8.02;6.88;;;;;;;13.11;97.27;96054.28;5355943;55;20148;-75
2021/09/09 04:41:25;;;;;;;10.77;7.40;;;;;;;13.11;97.24;96051.50;5351536;55;20121;-75
2021/09/09 04:46:27;;;;;;;11.15;7.22;;;;;;;13.09;96.96;96056.78;5348648;55;20096;-75
2021/09/09 04:51:30;;;;;;;9.52;7.38;;;;;;;13.24;97.21;96063.00;5350857;55;20109;-75
2021/09/09 04:56:32;;;;;;;10.15;6.95;;;;;;;13.18;96.77;96054.63;5350219;55;20113;-75
2021/09/09 05:01:35;;;;;;;9.27;6.88;;;;;;;13.21;96.43;96055.66;5345215;55;20135;-76
2021/09/09 05:06:37;;;;;;;8.20;6.60;;;;;;;13.24;96.36;96057.47;5344551;55;20766;-75
2021/09/09 05:11:40;;;;;;;8.80;6.75;;;;;;;13.28;96.38;96053.22;5344286;55;20104;-75
2021/09/09 05:16:42;;;;;;;9.80;6.90;;;;;;;13.34;96.36;96064.41;5346103;55;20127;-75
2021/09/09 05:21:44;;;;;;;9.50;6.35;;;;;;;13.40;97.21;96054.13;5345244;55;20208;-75
2021/09/09 05:26:47;;;;;;;10.10;7.05;;;;;;;13.47;97.11;96054.47;5346723;55;20122;-75
2021/09/09 05:31:49;;;;;;;7.90;7.00;;;;;;;13.62;96.34;96057.16;5338546;55;20130;-75
2021/09/09 05:36:52;;;;;;;8.05;7.20;;;;;;;13.80;95.77;96044.94;5351598;55;20210;-75
2021/09/09 05:41:54;;;;;;;8.60;6.75;;;;;;;14.06;95.65;96056.84;5334496;55;20113;-75
2021/09/09 05:46:57;;;;;;;7.90;6.32;;;;;;;14.18;94.96;96056.44;5332662;55;20176;-75
2021/09/09 05:51:59;;;;;;;9.85;6.55;;;;;;;14.32;94.73;96054.81;5330800;55;20580;-75
2021/09/09 05:57:02;;;;;;;10.77;6.63;;;;;;;14.46;95.37;96069.81;5330132;55;20657;-76
2021/09/09 06:02:14;;;;;;;9.10;6.70;;;;;;;14.69;94.72;96063.94;5332275;55;20136;-74
2021/09/09 06:07:17;;;;;;;9.77;7.25;;;;;;;14.85;96.54;96068.09;5320989;55;20113;-75
2021/09/09 06:12:25;;;;;;;8.18;7.25;;;;;;;15.12;95.52;96070.25;5330024;55;20118;-75
2021/09/09 06:17:28;;;;;;;7.63;6.87;;;;;;;15.25;96.30;96067.03;5331171;55;20126;-76
2021/09/09 06:22:30;;;;;;;8.70;7.45;;;;;;;15.59;95.90;96077.06;5332321;55;20409;-75
2021/09/09 06:27:32;;;;;;;8.23;7.22;;;;;;;15.85;94.53;96076.91;5320920;55;20109;-76
2021/09/09 06:32:35;;;;;;;8.80;6.95;;;;;;;16.18;93.87;96080.50;5330767;55;20223;-73
2021/09/09 06:37:39;;;;;;;8.80;6.13;;;;;;;16.59;92.25;96071.69;5331609;55;20131;-76
2021/09/09 06:42:41;;;;;;;7.82;6.50;;;;;;;16.88;91.22;96083.06;5330894;55;20202;-74
2021/09/09 06:47:44;;;;;;;10.63;6.57;;;;;;;17.17;90.19;96082.50;5339374;55;20138;-76
2021/09/09 06:52:46;;;;;;;6.45;5.80;;;;;;;17.41;87.69;96083.97;5344026;55;20109;-74
2021/09/09 06:57:49;;;;;;;6.78;5.47;;;;;;;17.71;85.24;96091.22;5339533;55;20661;-77
2021/09/09 07:02:51;;;;;;;5.93;5.05;;;;;;;17.86;83.27;96090.91;5330927;55;20173;-73
2021/09/09 07:07:54;;;;;;;6.35;5.40;;;;;;;18.03;82.13;96094.34;5339949;55;20122;-76
2021/09/09 07:12:56;;;;;;;8.60;5.22;;;;;;;18.27;80.48;96105.66;5329729;55;20674;-78
2021/09/09 07:17:59;;;;;;;6.65;5.60;;;;;;;18.63;78.96;96107.19;5330116;55;20837;-76
2021/09/09 07:23:01;;;;;;;9.07;5.82;;;;;;;18.94;77.52;96107.97;5330591;55;20118;-75
2021/09/09 07:28:04;;;;;;;5.68;5.18;;;;;;;18.96;74.12;96108.97;5338888;55;20123;-77
2021/09/09 07:33:06;;;;;;;7.85;5.60;;;;;;;19.19;77.22;96092.69;5319478;55;20114;-78
2021/09/09 07:38:09;;;;;;;8.38;5.88;;;;;;;19.45;75.76;96101.34;5316416;55;20620;-78
2021/09/09 07:43:12;;;;;;;7.55;5.70;;;;;;;19.75;75.17;96110.44;5330232;55;20123;-78
2021/09/09 07:48:14;;;;;;;10.00;5.07;;;;;;;19.93;70.80;96101.28;5327050;55;20563;-77
2021/09/09 07:53:17;;;;;;;5.85;4.88;;;;;;;20.13;73.56;96111.22;5327039;55;20849;-76
2021/09/09 07:58:19;;;;;;;6.93;5.80;;;;;;;20.50;71.98;96114.03;5329300;55;20136;-75
2021/09/09 08:03:22;;;;;;;7.32;5.20;;;;;;;20.84;68.96;96105.84;5332554;55;20109;-76
2021/09/09 08:08:24;;;;;;;7.10;5.15;;;;;;;21.11;70.63;96113.06;5321025;55;20118;-76
2021/09/09 08:13:26;;;;;;;5.85;5.25;;;;;;;21.36;67.91;96111.59;5328993;55;20132;-76
2021/09/09 08:18:29;;;;;;;5.82;5.30;;;;;;;21.75;67.30;96119.28;5326737;44;20158;-79
2021/09/09 08:23:32;;;;;;;7.93;4.68;;;;;;;22.09;63.38;96125.00;5300812;55;20123;-79
2021/09/09 08:28:35;;;;;;;6.90;4.78;;;;;;;22.45;61.11;96126.00;5304888;55;20229;-79
2021/09/09 08:33:39;;;;;;;6.65;4.93;;;;;;;22.75;57.53;96128.41;5304172;56;20129;-78
2021/09/09 08:38:41;;;;;;;7.13;4.78;;;;;;;23.29;57.74;96133.94;5318917;56;20118;-78
2021/09/09 08:43:44;;;;;;;6.95;4.72;;;;;;;24.53;54.41;96132.84;5301435;55;20583;-78
2021/09/09 08:48:49;;;;;;;6.70;4.82;;;;;;;25.42;51.09;96136.41;5284452;56;20125;-78
2021/09/09 08:53:52;;;;;;;4.88;4.47;;;;;;;25.86;46.83;96142.59;5292743;56;20110;-78
2021/09/09 08:58:55;;;;;;;4.65;4.25;;;;;;;25.66;46.65;96137.91;5285488;56;20111;-78
2021/09/09 09:04:06;;;;;;;6.13;4.45;;;;;;;26.04;46.11;96141.41;5287610;56;20214;-79
2021/09/09 09:09:10;;;;;;;5.88;4.38;;;;;;;26.29;44.65;96143.06;5286305;56;20215;-78
2021/09/09 09:14:18;;;;;;;4.82;4.43;;;;;;;26.69;46.07;96137.41;5295961;55;20120;-78
2021/09/09 09:19:41;;;;;;;9.93;4.38;;;;;;;27.04;44.29;96146.88;5283762;55;20123;-77
2021/09/09 09:24:48;;;;;;;5.28;4.47;;;;;;;26.43;44.88;96135.09;5275761;55;20133;-79
2021/09/09 09:30:09;;;;;;;7.93;4.10;;;;;;;26.55;44.31;96143.91;5300469;55;20165;-78
2021/09/09 09:35:17;;;;;;;4.72;4.28;;;;;;;27.03;45.37;96136.84;5277240;55;20111;-78
2021/09/09 09:40:27;;;;;;;;;;;;;;;27.26;43.57;96136.69;5306317;55;20141;-78
2021/09/09 09:45:29;;;;;;;4.28;3.88;;;;;;;27.03;44.69;96136.84;5310453;55;19990;-78
2021/09/09 09:50:41;;;;;;;5.07;4.15;;;;;;;28.09;43.34;96150.19;5311665;55;20132;-78
2021/09/09 09:55:48;;;;;;;4.55;4.05;;;;;;;28.38;43.84;96143.41;5312697;55;20122;-78
2021/09/09 10:00:51;;;;;;;8.88;4.60;;;;;;;28.04;41.82;96146.28;5311834;55;20114;-79
2021/09/09 10:05:53;;;;;;;7.28;4.70;;;;;;;28.11;44.82;96142.56;5288195;55;20113;-78
2021/09/09 10:10:56;;;;;;;5.30;4.68;;;;;;;27.42;43.11;96140.94;5276784;55;20132;-78
2021/09/09 10:15:58;;;;;;;6.80;4.47;;;;;;;27.83;42.82;96150.78;5301981;55;20114;-78
2021/09/09 10:21:02;;;;;;;6.22;4.60;;;;;;;27.63;44.60;96129.97;5286290;55;20111;-79
2021/09/09 10:26:05;;;;;;;7.38;5.38;;;;;;;26.65;45.17;96133.44;5265941;55;20129;-79
2021/09/09 10:31:16;;;;;;;5.20;4.70;;;;;;;27.69;44.70;96128.41;5290970;55;20115;-79
2021/09/09 10:36:41;;;;;;;4.70;4.30;;;;;;;28.65;42.33;96129.28;5297658;55;20199;-80
2021/09/09 10:41:44;;;;;;;5.07;4.68;;;;;;;28.22;42.28;96133.56;5298821;55;20114;-79
2021/09/09 10:46:48;;;;;;;6.72;4.68;;;;;;;28.62;42.72;96126.84;5309974;55;20157;-79
2021/09/09 10:52:14;;;;;;;8.90;4.63;;;;;;;29.06;40.89;96124.72;5308943;55;20127;-78
2021/09/09 10:57:17;;;;;;;5.40;4.90;;;;;;;28.94;41.24;96115.22;5310299;55;20114;-79
2021/09/09 11:02:19;;;;;;;5.10;4.38;;;;;;;29.44;40.78;96118.44;5313714;55;20136;-78
2021/09/09 11:07:27;;;;;;;5.15;4.65;;;;;;;30.22;40.60;96118.75;5310720;55;20132;-78
2021/09/09 11:12:51;;;;;;;9.73;4.73;;;;;;;29.79;42.75;96111.22;5291410;55;20606;-79
2021/09/09 11:17:57;;;;;;;8.23;4.70;;;;;;;30.43;39.81;96110.38;5291913;56;20115;-79
2021/09/09 11:23:11;;;;;;;6.18;4.55;;;;;;;29.54;39.02;96096.44;5283493;56;20123;-79
2021/09/09 11:28:17;;;;;;;10.95;4.50;;;;;;;29.13;38.81;96104.66;5291954;56;20106;-79
2021/09/09 11:33:19;;;;;;;7.10;4.65;;;;;;;29.68;37.76;96098.28;5283327;56;20125;-79
2021/09/09 11:38:32;;;;;;;5.03;4.53;;;;;;;28.78;41.04;96096.84;5282803;56;20119;-79
2021/09/09 11:43:34;;;;;;;5.85;4.40;;;;;;;28.50;41.24;96109.50;5275320;56;20142;-80
2021/09/09 11:48:37;;;;;;;4.80;4.40;;;;;;;28.29;39.45;96104.28;5293678;56;20119;-78
2021/09/09 11:53:39;;;;;;;5.40;4.15;;;;;;;28.32;38.73;96094.59;5302021;56;20146;-79
2021/09/09 11:58:43;;;;;;;5.30;4.00;;;;;;;28.36;41.41;96097.03;5283272;56;20119;-79
2021/09/09 12:03:47;;;;;;;4.35;4.00;;;;;;;28.63;44.28;96105.59;5299403;56;20116;-79
2021/09/09 12:08:50;;;;;;;4.53;4.13;;;;;;;29.05;42.01;96097.59;5282485;55;20680;-79
2021/09/09 12:13:52;;;;;;;5.22;3.88;;;;;;;29.01;38.38;96092.34;5279868;55;20216;-79
2021/09/09 12:19:06;;;;;;;5.43;3.92;;;;;;;29.11;38.42;96095.22;5284390;55;20110;-79
2021/09/09 12:24:11;;;;;;;4.38;4.05;;;;;;;29.31;38.38;96084.69;5282678;55;20130;-80
2021/09/09 12:29:16;;;;;;;5.30;4.10;;;;;;;28.84;38.30;96083.84;5284007;55;20110;-80
2021/09/09 12:34:19;;;;;;;4.53;4.05;;;;;;;28.81;39.51;96076.50;5278403;56;20133;-79
2021/09/09 12:39:21;;;;;;;5.38;3.72;;;;;;;28.04;41.60;96080.16;5301554;56;20559;-79
2021/09/09 12:44:24;;;;;;;6.30;3.72;;;;;;;28.88;40.21;96072.06;5309691;55;20106;-80
2021/09/09 12:49:27;;;;;;;3.97;3.53;;;;;;;29.03;40.13;96083.97;5298923;55;20141;-80
2021/09/09 12:54:29;;;;;;;6.85;3.60;;;;;;;28.60;39.81;96084.03;5281095;55;20114;-80
2021/09/09 12:59:32;;;;;;;3.95;3.53;;;;;;;27.49;40.79;96086.94;5298147;55;20804;-78
2021/09/09 13:04:35;;;;;;;7.07;3.90;;;;;;;27.56;39.75;96082.53;5308456;55;20111;-80
2021/09/09 13:09:37;;;;;;;4.03;3.63;;;;;;;28.03;39.19;96087.16;5293203;56;20144;-80
2021/09/09 13:14:40;;;;;;;4.93;3.80;;;;;;;28.58;40.13;96083.84;5284217;56;20353;-81
2021/09/09 13:19:42;;;;;;;5.43;3.70;;;;;;;28.29;41.42;96077.97;5292572;56;20255;-80
2021/09/09 13:24:45;;;;;;;3.95;3.65;;;;;;;28.41;39.38;96082.53;5293782;56;20128;-80
2021/09/09 13:29:47;;;;;;;5.97;3.70;;;;;;;28.21;38.33;96069.53;5293146;56;20142;-80
2021/09/09 13:34:49;;;;;;;4.30;3.72;;;;;;;28.86;40.02;96075.47;5293616;56;20150;-80
2021/09/09 13:39:52;;;;;;;5.13;3.30;;;;;;;29.60;38.38;96072.03;5284679;56;20133;-80
2021/09/09 13:44:54;;;;;;;3.92;3.63;;;;;;;28.21;37.27;96066.69;5289750;56;20106;-80
2021/09/09 13:49:57;;;;;;;5.30;3.25;;;;;;;28.53;37.21;96059.25;5283344;55;20150;-80
2021/09/09 13:55:00;;;;;;;3.20;2.90;;;;;;;28.77;36.96;96061.97;5282280;56;20112;-84
2021/09/09 14:00:04;;;;;;;5.50;3.08;;;;;;;28.80;37.01;96054.34;5274515;56;20239;-81
2021/09/09 14:05:10;;;;;;;6.10;5.50;;;;;;;29.00;37.52;96047.41;5265780;56;20120;-82
2021/09/09 14:10:16;;;;;;;4.60;3.67;;;;;;;28.39;38.41;96045.41;5275693;56;20225;-80
2021/09/09 14:15:21;;;;;;;4.07;3.47;;;;;;;27.82;38.01;96047.81;5276795;56;20213;-80
2021/09/09 14:20:23;;;;;;;5.47;4.15;;;;;;;28.66;38.38;96045.44;5296201;56;20247;-81
2021/09/09 14:25:26;;;;;;;4.38;3.15;;;;;;;27.83;38.93;96051.41;5287778;56;20304;-81
2021/09/09 14:30:28;;;;;;;4.00;3.65;;;;;;;27.70;37.49;96038.28;5296290;56;20136;-82
2021/09/09 14:35:31;;;;;;;4.85;3.83;;;;;;;27.12;38.77;96036.91;5296712;56;20127;-82
2021/09/09 14:40:33;;;;;;;4.50;3.50;;;;;;;27.27;39.24;96033.22;5301185;56;20133;-82
2021/09/09 14:45:35;;;;;;;3.78;3.45;;;;;;;26.58;40.50;96029.38;5300367;56;20107;-82
2021/09/09 14:50:38;;;;;;;4.15;3.80;;;;;;;26.20;44.19;96035.25;5298142;56;20128;-82
2021/09/09 14:55:40;;;;;;;5.53;4.10;;;;;;;25.87;44.84;96036.53;5287591;56;20129;-80
2021/09/09 15:00:43;;;;;;;3.97;3.58;;;;;;;26.82;43.17;96035.09;5297357;56;20128;-80
2021/09/09 15:05:46;;;;;;;6.20;3.67;;;;;;;27.18;42.07;96025.34;5296588;56;20119;-79
2021/09/09 15:10:49;;;;;;;5.53;3.15;;;;;;;27.06;43.31;96030.00;5302752;56;20133;-79
2021/09/09 15:15:51;;;;;;;4.75;3.90;;;;;;;27.18;42.98;96033.88;5297546;56;20225;-81
2021/09/09 15:20:54;;;;;;;5.93;3.70;;;;;;;26.68;45.05;96039.53;5296931;56;20133;-81
2021/09/09 15:25:57;;;;;;;6.47;3.45;;;;;;;26.61;44.19;96026.16;5283578;56;20119;-81
2021/09/09 15:30:59;;;;;;;6.28;3.63;;;;;;;26.74;46.23;96030.81;5286644;56;20142;-80
2021/09/09 15:36:01;;;;;;;8.45;4.00;;;;;;;26.71;45.00;96021.34;5288897;56;20588;-80
2021/09/09 15:41:04;;;;;;;6.10;3.53;;;;;;;26.67;45.51;96029.50;5277657;55;20111;-80
2021/09/09 15:46:06;;;;;;;4.50;3.63;;;;;;;26.26;47.67;96015.97;5296025;55;20114;-81
2021/09/09 15:51:09;;;;;;;7.05;3.97;;;;;;;25.98;45.90;96027.59;5295835;55;20128;-80
2021/09/09 15:56:12;;;;;;;5.28;3.55;;;;;;;26.31;46.42;96029.91;5293154;55;20115;-81
2021/09/09 16:01:15;;;;;;;9.63;3.90;;;;;;;26.36;46.55;96022.53;5288239;56;20583;-81
2021/09/09 16:06:18;;;;;;;5.07;4.00;;;;;;;26.33;49.35;96003.84;5289327;56;20200;-80
2021/09/09 16:11:21;;;;;;;4.68;4.03;;;;;;;26.29;47.50;96017.66;5287611;55;20677;-80
2021/09/09 16:16:23;;;;;;;5.30;3.78;;;;;;;26.25;47.21;96009.56;5258687;56;20167;-81
2021/09/09 16:21:26;;;;;;;5.40;3.80;;;;;;;26.13;47.92;96010.56;5265349;56;20121;-82
2021/09/09 16:26:28;;;;;;;4.97;3.90;;;;;;;26.34;48.08;96005.34;5270684;55;20130;-80
2021/09/09 16:31:31;;;;;;;6.35;3.85;;;;;;;26.21;48.48;96008.47;5277835;55;20116;-82
2021/09/09 16:36:33;;;;;;;5.28;4.30;;;;;;;25.91;47.33;96008.56;5274146;56;20282;-82
2021/09/09 16:41:36;;;;;;;6.50;3.90;;;;;;;25.90;47.76;96004.97;5289597;56;20121;-81
2021/09/09 16:46:38;;;;;;;6.70;4.00;;;;;;;25.70;47.77;96008.06;5281364;56;20115;-82
2021/09/09 16:51:41;;;;;;;5.70;3.78;;;;;;;25.56;49.39;96010.38;5291652;56;20334;-81
2021/09/09 16:56:48;;;;;;;5.88;3.97;;;;;;;25.28;51.19;96014.19;5290501;56;20133;-81
2021/09/09 17:01:51;;;;;;;6.05;3.97;;;;;;;24.89;52.38;96003.50;5292840;56;20133;-83
2021/09/09 17:06:54;;;;;;;5.85;4.00;;;;;;;24.65;53.03;96004.03;5297762;55;20128;-81
2021/09/09 17:11:57;;;;;;;4.97;3.97;;;;;;;24.32;54.10;96005.84;5287225;56;20143;-81
2021/09/09 17:16:59;;;;;;;5.55;3.95;;;;;;;23.87;57.52;95994.41;5289495;56;20218;-82
2021/09/09 17:22:02;;;;;;;4.35;3.95;;;;;;;23.52;57.95;96002.34;5301392;56;20216;-82
2021/09/09 17:27:04;;;;;;;4.57;4.18;;;;;;;23.27;61.40;96006.13;5293479;56;20585;-82
2021/09/09 17:32:07;;;;;;;7.68;4.57;;;;;;;22.87;66.21;96010.53;5305798;55;20114;-81
2021/09/09 17:37:09;;;;;;;6.03;4.30;;;;;;;22.25;70.37;96011.28;5318483;55;20114;-82
2021/09/09 17:42:12;;;;;;;6.85;4.38;;;;;;;21.93;71.72;96017.13;5319159;55;20114;-80
2021/09/09 17:47:16;;;;;;;4.85;4.30;;;;;;;21.67;72.93;96022.78;5318611;55;20119;-82
2021/09/09 17:52:19;;;;;;;5.80;4.47;;;;;;;21.67;74.65;96016.41;5320576;55;20114;-82
2021/09/09 17:57:22;;;;;;;7.00;5.10;;;;;;;21.33;76.34;96019.91;5293917;55;20115;-81
2021/09/09 18:02:26;;;;;;;7.53;4.60;;;;;;;20.93;79.04;96023.97;5303288;55;20152;-81
2021/09/09 18:07:29;;;;;;;5.60;4.90;;;;;;;20.81;78.92;96028.25;5260750;56;20264;-81
2021/09/09 18:12:32;;;;;;;7.40;4.78;;;;;;;20.79;79.41;96036.47;5305552;55;20122;-81
2021/09/09 18:17:39;;;;;;;6.53;5.03;;;;;;;20.73;78.27;96038.63;5292151;56;20147;-81
2021/09/09 18:22:42;;;;;;;6.10;4.63;;;;;;;20.54;79.74;96049.16;5298170;56;20115;-81
2021/09/09 18:27:44;;;;;;;7.47;5.20;;;;;;;20.36;80.84;96063.97;5291917;55;20115;-81
2021/09/09 18:32:47;;;;;;;7.15;4.82;;;;;;;20.17;81.42;96061.19;5292353;56;20132;-81
2021/09/09 18:37:50;;;;;;;6.07;5.05;;;;;;;19.88;82.69;96056.47;5288305;56;20151;-82
2021/09/09 18:42:52;;;;;;;5.32;4.70;;;;;;;19.59;83.37;96065.78;5304660;55;20680;-81
2021/09/09 18:47:55;;;;;;;7.03;5.55;;;;;;;19.36;83.95;96072.94;5292791;56;20110;-82
2021/09/09 18:53:03;;;;;;;5.93;5.32;;;;;;;19.21;85.24;96081.72;5303113;56;20889;-79
2021/09/09 18:58:06;;;;;;;7.35;5.80;;;;;;;19.07;85.43;96085.69;5302574;56;20659;-81
2021/09/09 19:03:08;;;;;;;9.68;5.53;;;;;;;19.03;84.71;96093.63;5284349;56;20116;-84
2021/09/09 19:08:11;;;;;;;10.77;5.63;;;;;;;18.96;83.16;96083.75;5287684;56;20111;-82
2021/09/09 19:13:13;;;;;;;6.55;5.88;;;;;;;18.96;83.14;96106.16;5296828;56;20116;-82
2021/09/09 19:18:16;;;;;;;7.60;6.47;;;;;;;18.94;81.65;96096.75;5286693;56;20116;-82
2021/09/09 19:23:19;;;;;;;6.68;5.45;;;;;;;18.95;80.29;96096.22;5286893;56;20116;-83
2021/09/09 19:28:21;;;;;;;6.00;5.50;;;;;;;19.01;80.91;96099.00;5278319;56;20098;-81
2021/09/09 19:33:24;;;;;;;10.27;5.93;;;;;;;18.95;81.68;96101.84;5283405;56;20134;-82
2021/09/09 19:38:27;;;;;;;9.73;5.38;;;;;;;18.87;83.07;96111.34;5282423;56;20809;-81
2021/09/09 19:43:31;;;;;;;5.70;5.15;;;;;;;18.74;84.21;96108.41;5304858;55;20123;-82
2021/09/09 19:48:34;;;;;;;6.40;5.80;;;;;;;18.60;84.91;96113.84;5307779;55;22068;-82
2021/09/09 19:53:37;;;;;;;6.55;5.15;;;;;;;18.60;84.30;96118.69;5290798;55;20131;-82
2021/09/09 19:58:39;;;;;;;5.85;5.35;;;;;;;18.28;85.70;96115.56;5302775;56;20129;-83
2021/09/09 20:03:42;;;;;;;6.25;5.57;;;;;;;18.17;87.05;96117.66;5303715;56;20139;-83
2021/09/09 20:08:44;;;;;;;8.85;6.32;;;;;;;18.03;86.87;96118.75;5303129;56;20119;-84
2021/09/09 20:13:47;;;;;;;7.60;6.35;;;;;;;17.99;87.08;96118.28;5304306;56;20153;-82
2021/09/09 20:18:51;;;;;;;10.27;6.88;;;;;;;17.97;87.07;96124.41;5303683;56;20278;-83
2021/09/09 20:23:53;;;;;;;7.45;6.60;;;;;;;17.92;86.86;96125.94;5303143;56;20115;-82
2021/09/09 20:28:56;;;;;;;8.75;5.85;;;;;;;17.89;86.99;96126.19;5298046;56;20150;-81
2021/09/09 20:33:58;;;;;;;8.60;6.55;;;;;;;17.92;86.74;96127.97;5297188;56;20132;-82
2021/09/09 20:39:01;;;;;;;12.25;6.68;;;;;;;17.78;87.27;96134.63;5288980;56;20125;-81
2021/09/09 20:44:04;;;;;;;8.02;6.55;;;;;;;17.77;86.57;96138.72;5296695;56;20131;-81
2021/09/09 20:49:07;;;;;;;12.43;6.95;;;;;;;17.72;86.06;96126.28;5287888;56;20107;-82
2021/09/09 20:54:10;;;;;;;8.38;7.35;;;;;;;17.74;86.10;96139.75;5282656;56;20125;-82
2021/09/09 20:59:12;;;;;;;7.57;6.88;;;;;;;17.66;86.01;96142.28;5274665;56;20137;-82
2021/09/09 21:04:14;;;;;;;9.15;6.65;;;;;;;17.73;85.36;96141.03;5275282;56;20777;-81
2021/09/09 21:09:17;;;;;;;9.02;7.03;;;;;;;17.81;84.12;96148.34;5276065;56;20125;-81
2021/09/09 21:14:19;;;;;;;8.80;7.15;;;;;;;17.82;83.13;96149.13;5279000;56;20142;-82
2021/09/09 21:19:21;;;;;;;7.90;6.60;;;;;;;17.82;83.53;96149.13;5277863;56;20111;-82
2021/09/09 21:24:24;;;;;;;8.57;7.40;;;;;;;17.74;83.70;96148.13;5288023;56;20115;-81
2021/09/09 21:29:26;;;;;;;7.15;6.50;;;;;;;17.77;83.15;96158.28;5291957;56;20120;-82
2021/09/09 21:34:29;;;;;;;7.70;6.28;;;;;;;17.69;84.04;96157.28;5290594;56;20146;-81
2021/09/09 21:39:31;;;;;;;6.57;5.60;;;;;;;17.60;84.90;96160.34;5282979;56;20691;-82
2021/09/09 21:44:34;;;;;;;8.07;5.95;;;;;;;17.56;85.58;96174.59;5292949;56;20133;-81
2021/09/09 21:49:36;;;;;;;8.50;6.57;;;;;;;17.46;86.39;96167.72;5304357;56;20119;-80
2021/09/09 21:54:38;;;;;;;6.90;6.15;;;;;;;17.48;86.51;96175.63;5307716;56;20146;-81
2021/09/09 21:59:41;;;;;;;7.00;5.70;;;;;;;17.48;86.20;96176.34;5298426;55;20123;-81
2021/09/09 22:04:43;;;;;;;6.93;6.25;;;;;;;17.57;85.06;96170.53;5302891;55;20661;-81
2021/09/09 22:09:45;;;;;;;7.75;6.63;;;;;;;17.54;84.79;96176.38;5285006;55;20124;-81
2021/09/09 22:14:49;;;;;;;10.00;6.47;;;;;;;17.50;84.92;96179.44;5295370;55;20651;-80
2021/09/09 22:19:51;;;;;;;6.70;6.10;;;;;;;17.41;84.84;96176.13;5287802;55;20138;-79
2021/09/09 22:24:54;;;;;;;7.25;5.10;;;;;;;17.26;85.76;96170.06;5291161;55;21671;-80
2021/09/09 22:29:56;;;;;;;6.45;5.85;;;;;;;17.21;86.15;96171.59;5284572;55;20611;-80
2021/09/09 22:34:58;;;;;;;7.00;5.65;;;;;;;17.09;87.22;96172.88;5286696;55;20132;-80
2021/09/09 22:40:03;;;;;;;5.85;5.13;;;;;;;17.02;87.99;96174.16;5290040;55;20119;-80
2021/09/09 22:45:06;;;;;;;6.13;5.43;;;;;;;16.92;88.74;96170.09;5286096;55;20107;-81
2021/09/09 22:50:09;;;;;;;7.65;5.50;;;;;;;16.83;88.89;96167.56;5283875;55;20116;-80
2021/09/09 22:55:12;;;;;;;8.95;5.70;;;;;;;16.75;89.63;96174.16;5288792;55;20698;-80
2021/09/09 23:00:14;;;;;;;5.78;5.07;;;;;;;16.66;90.74;96172.38;5290177;55;20111;-80
2021/09/09 23:05:17;;;;;;;5.90;5.20;;;;;;;16.63;91.27;96167.81;5293053;56;20101;-80
2021/09/09 23:10:19;;;;;;;5.97;5.13;;;;;;;16.56;91.14;96173.88;5292648;56;20754;-80
2021/09/09 23:15:22;;;;;;;9.38;5.60;;;;;;;16.50;91.61;96173.09;5292379;56;20115;-80
2021/09/09 23:20:24;;;;;;;5.90;5.30;;;;;;;16.38;91.84;96179.91;5295448;56;20115;-81
2021/09/09 23:25:26;;;;;;;6.50;5.50;;;;;;;16.32;91.69;96173.56;5291931;56;20133;-79
2021/09/09 23:30:29;;;;;;;6.13;5.43;;;;;;;16.15;92.34;96186.69;5293323;56;20166;-81
2021/09/09 23:35:31;;;;;;;7.82;5.55;;;;;;;16.12;93.45;96187.69;5301126;56;20128;-81
2021/09/09 23:40:35;;;;;;;11.85;6.45;;;;;;;16.12;93.04;96188.47;5285247;56;20225;-80
2021/09/09 23:45:38;;;;;;;7.72;6.47;;;;;;;16.03;93.41;96183.13;5292417;56;20124;-80
2021/09/09 23:50:40;;;;;;;8.85;6.47;;;;;;;16.03;93.13;96179.56;5283026;56;20129;-81